createdAt,value
2023-01-13T00:00:03.871Z,10.92
2023-01-13T00:00:24.931Z,10.91
2023-01-13T00:00:46.018Z,10.91
2023-01-13T00:01:07.061Z,10.91
2023-01-13T00:01:28.130Z,10.91
2023-01-13T00:01:49.145Z,10.91
2023-01-13T00:02:10.375Z,10.91
2023-01-13T00:02:31.438Z,10.92
2023-01-13T00:02:52.465Z,10.91
2023-01-13T00:03:13.523Z,10.93
2023-01-13T00:03:34.549Z,10.92
2023-01-13T00:03:55.607Z,10.92
2023-01-13T00:04:16.667Z,10.92
2023-01-13T00:04:37.771Z,10.93
2023-01-13T00:04:58.840Z,10.93
2023-01-13T00:05:19.889Z,10.92
2023-01-13T00:05:40.937Z,10.93
2023-01-13T00:06:02.012Z,10.93
2023-01-13T00:06:23.047Z,10.92
2023-01-13T00:06:44.099Z,10.93
2023-01-13T00:07:05.151Z,10.92
2023-01-13T00:07:26.378Z,10.92
2023-01-13T00:07:47.415Z,10.92
2023-01-13T00:08:08.462Z,10.92
2023-01-13T00:08:29.528Z,10.93
2023-01-13T00:08:50.587Z,10.92
2023-01-13T00:09:11.638Z,10.93
2023-01-13T00:09:32.682Z,10.93
2023-01-13T00:09:53.732Z,10.93
2023-01-13T00:10:14.839Z,10.93
2023-01-13T00:10:35.848Z,10.93
2023-01-13T00:10:56.893Z,10.93
2023-01-13T00:11:17.936Z,10.93
2023-01-13T00:11:38.997Z,10.93
2023-01-13T00:12:00.042Z,10.94
2023-01-13T00:12:21.116Z,10.94
2023-01-13T00:12:42.314Z,10.94
2023-01-13T00:13:03.355Z,10.94
2023-01-13T00:13:24.404Z,10.95
2023-01-13T00:13:45.461Z,10.94
2023-01-13T00:14:06.513Z,10.94
2023-01-13T00:14:27.581Z,10.96
2023-01-13T00:14:48.611Z,10.95
2023-01-13T00:15:09.666Z,10.95
2023-01-13T00:15:30.727Z,10.96
2023-01-13T00:15:51.792Z,10.96
2023-01-13T00:16:12.871Z,10.96
2023-01-13T00:16:33.917Z,10.96
2023-01-13T00:16:54.953Z,10.97
2023-01-13T00:17:16.014Z,10.96
2023-01-13T00:17:37.074Z,10.98
2023-01-13T00:17:58.279Z,10.97
2023-01-13T00:18:19.324Z,10.98
2023-01-13T00:18:40.387Z,10.98
2023-01-13T00:19:01.434Z,10.98
2023-01-13T00:19:22.477Z,10.97
2023-01-13T00:19:43.533Z,10.98
2023-01-13T00:20:04.591Z,10.97
2023-01-13T00:20:25.638Z,10.98
2023-01-13T00:20:46.687Z,10.98
2023-01-13T00:21:07.730Z,10.97
2023-01-13T00:21:28.781Z,10.98
2023-01-13T00:21:49.830Z,10.98
2023-01-13T00:22:10.883Z,10.98
2023-01-13T00:22:31.946Z,10.98
2023-01-13T00:22:52.983Z,10.98
2023-01-13T00:23:14.058Z,10.98
2023-01-13T00:23:35.105Z,10.98
2023-01-13T00:23:56.162Z,10.99
2023-01-13T00:24:17.212Z,10.99
2023-01-13T00:24:38.271Z,10.99
2023-01-13T00:24:59.334Z,10.99
2023-01-13T00:25:20.394Z,10.99
2023-01-13T00:25:41.448Z,10.99
2023-01-13T00:26:02.509Z,10.99
2023-01-13T00:26:23.554Z,10.99
2023-01-13T00:26:44.603Z,10.99
2023-01-13T00:27:05.655Z,10.99
2023-01-13T00:27:26.724Z,11.00
2023-01-13T00:27:47.749Z,11.01
2023-01-13T00:28:08.795Z,11.01
2023-01-13T00:28:30.003Z,11.00
2023-01-13T00:28:51.045Z,11.01
2023-01-13T00:29:12.099Z,11.01
2023-01-13T00:29:33.171Z,11.02
2023-01-13T00:29:54.197Z,11.02
2023-01-13T00:30:15.238Z,11.02
2023-01-13T00:30:36.303Z,11.02
2023-01-13T00:30:57.395Z,11.02
2023-01-13T00:31:18.492Z,11.02
2023-01-13T00:31:39.529Z,11.02
2023-01-13T00:32:00.601Z,11.03
2023-01-13T00:32:21.637Z,11.02
2023-01-13T00:32:42.687Z,11.03
2023-01-13T00:33:03.727Z,11.03
2023-01-13T00:33:24.788Z,11.03
2023-01-13T00:33:45.853Z,11.03
2023-01-13T00:34:06.912Z,11.03
2023-01-13T00:34:27.975Z,11.03
2023-01-13T00:34:49.051Z,11.03
2023-01-13T00:35:10.111Z,11.04
2023-01-13T00:35:31.207Z,11.04
2023-01-13T00:35:52.269Z,11.04
2023-01-13T00:36:13.329Z,11.04
2023-01-13T00:36:34.378Z,11.04
2023-01-13T00:36:55.428Z,11.04
2023-01-13T00:37:16.502Z,11.04
2023-01-13T00:37:37.556Z,11.04
2023-01-13T00:37:58.605Z,11.04
2023-01-13T00:38:19.659Z,11.04
2023-01-13T00:38:40.731Z,11.04
2023-01-13T00:39:01.790Z,11.05
2023-01-13T00:39:22.847Z,11.04
2023-01-13T00:39:43.895Z,11.04
2023-01-13T00:40:04.974Z,11.04
2023-01-13T00:40:26.011Z,11.05
2023-01-13T00:40:47.052Z,11.04
2023-01-13T00:41:08.113Z,11.05
2023-01-13T00:41:29.182Z,11.04
2023-01-13T00:41:50.233Z,11.04
2023-01-13T00:42:11.264Z,11.04
2023-01-13T00:42:32.324Z,11.04
2023-01-13T00:42:53.382Z,11.03
2023-01-13T00:43:14.424Z,11.04
2023-01-13T00:43:35.469Z,11.04
2023-01-13T00:43:56.523Z,11.04
2023-01-13T00:44:17.606Z,11.04
2023-01-13T00:44:38.661Z,11.04
2023-01-13T00:44:59.711Z,11.04
2023-01-13T00:45:20.747Z,11.05
2023-01-13T00:45:41.792Z,11.04
2023-01-13T00:46:02.846Z,11.04
2023-01-13T00:46:23.936Z,11.04
2023-01-13T00:46:44.989Z,11.05
2023-01-13T00:47:06.026Z,11.04
2023-01-13T00:47:27.079Z,11.05
2023-01-13T00:47:48.125Z,11.05
2023-01-13T00:48:09.219Z,11.05
2023-01-13T00:48:30.261Z,11.05
2023-01-13T00:48:51.305Z,11.05
2023-01-13T00:49:12.373Z,11.06
2023-01-13T00:49:33.563Z,11.05
2023-01-13T00:49:54.631Z,11.05
2023-01-13T00:50:15.665Z,11.05
2023-01-13T00:50:36.709Z,11.05
2023-01-13T00:50:57.756Z,11.06
2023-01-13T00:51:18.808Z,11.05
2023-01-13T00:51:39.859Z,11.06
2023-01-13T00:52:00.934Z,11.05
2023-01-13T00:52:21.990Z,11.05
2023-01-13T00:52:43.032Z,11.05
2023-01-13T00:53:04.080Z,11.05
2023-01-13T00:53:25.138Z,11.05
2023-01-13T00:53:46.190Z,11.06
2023-01-13T00:54:07.257Z,11.06
2023-01-13T00:54:28.287Z,11.05
2023-01-13T00:54:49.516Z,11.06
2023-01-13T00:55:10.564Z,11.05
2023-01-13T00:55:31.589Z,11.05
2023-01-13T00:55:52.644Z,11.05
2023-01-13T00:56:13.689Z,11.05
2023-01-13T00:56:40.135Z,11.06
2023-01-13T00:57:01.707Z,11.06
2023-01-13T00:57:22.777Z,11.06
2023-01-13T00:57:43.822Z,11.06
2023-01-13T00:58:04.885Z,11.06
2023-01-13T00:58:25.935Z,11.06
2023-01-13T00:58:47.015Z,11.06
2023-01-13T00:59:08.067Z,11.06
2023-01-13T00:59:29.117Z,11.06
2023-01-13T00:59:50.351Z,11.06
2023-01-13T01:00:11.393Z,11.05
2023-01-13T01:00:32.570Z,11.06
2023-01-13T01:00:53.755Z,11.05
2023-01-13T01:01:14.949Z,11.05
2023-01-13T01:01:36.177Z,11.05
2023-01-13T01:01:57.409Z,11.04
2023-01-13T01:02:18.516Z,11.05
2023-01-13T01:02:39.590Z,11.04
2023-01-13T01:03:00.637Z,11.04
2023-01-13T01:03:21.669Z,11.05
2023-01-13T01:03:42.730Z,11.05
2023-01-13T01:04:03.772Z,11.05
2023-01-13T01:04:24.831Z,11.04
2023-01-13T01:04:45.888Z,11.05
2023-01-13T01:05:07.110Z,11.04
2023-01-13T01:05:28.157Z,11.04
2023-01-13T01:05:49.209Z,11.05
2023-01-13T01:06:10.279Z,11.05
2023-01-13T01:06:31.321Z,11.05
2023-01-13T01:06:52.363Z,11.05
2023-01-13T01:07:13.417Z,11.06
2023-01-13T01:07:34.464Z,11.05
2023-01-13T01:07:55.509Z,11.06
2023-01-13T01:08:16.568Z,11.07
2023-01-13T01:08:37.608Z,11.06
2023-01-13T01:08:58.655Z,11.07
2023-01-13T01:09:19.724Z,11.07
2023-01-13T01:09:40.766Z,11.07
2023-01-13T01:10:01.836Z,11.07
2023-01-13T01:10:22.900Z,11.08
2023-01-13T01:10:43.950Z,11.08
2023-01-13T01:11:04.997Z,11.08
2023-01-13T01:11:26.078Z,11.08
2023-01-13T01:11:47.108Z,11.08
2023-01-13T01:12:08.164Z,11.08
2023-01-13T01:12:29.217Z,11.08
2023-01-13T01:12:50.265Z,11.08
2023-01-13T01:13:11.305Z,11.07
2023-01-13T01:13:32.359Z,11.07
2023-01-13T01:13:53.413Z,11.08
2023-01-13T01:14:14.465Z,11.08
2023-01-13T01:14:35.507Z,11.08
2023-01-13T01:14:56.572Z,11.07
2023-01-13T01:15:17.630Z,11.07
2023-01-13T01:15:38.686Z,11.09
2023-01-13T01:15:59.794Z,11.10
2023-01-13T01:16:20.829Z,11.10
2023-01-13T01:16:41.867Z,11.09
2023-01-13T01:17:02.934Z,11.09
2023-01-13T01:17:23.984Z,11.10
2023-01-13T01:17:45.024Z,11.10
2023-01-13T01:18:06.072Z,11.10
2023-01-13T01:18:27.119Z,11.10
2023-01-13T01:18:48.174Z,11.11
2023-01-13T01:19:09.246Z,11.10
2023-01-13T01:19:30.257Z,11.11
2023-01-13T01:19:51.329Z,11.11
2023-01-13T01:20:12.374Z,11.10
2023-01-13T01:20:33.428Z,11.11
2023-01-13T01:20:54.654Z,11.11
2023-01-13T01:21:15.689Z,11.11
2023-01-13T01:21:36.781Z,11.11
2023-01-13T01:21:57.805Z,11.11
2023-01-13T01:22:18.977Z,11.11
2023-01-13T01:22:40.027Z,11.11
2023-01-13T01:23:01.065Z,11.11
2023-01-13T01:23:22.120Z,11.11
2023-01-13T01:23:43.171Z,11.11
2023-01-13T01:24:04.228Z,11.11
2023-01-13T01:24:25.283Z,11.11
2023-01-13T01:24:46.307Z,11.12
2023-01-13T01:25:07.369Z,11.11
2023-01-13T01:25:28.406Z,11.12
2023-01-13T01:25:49.459Z,11.13
2023-01-13T01:26:10.555Z,11.12
2023-01-13T01:26:31.602Z,11.12
2023-01-13T01:26:52.639Z,11.12
2023-01-13T01:27:13.695Z,11.12
2023-01-13T01:27:34.734Z,11.13
2023-01-13T01:27:55.801Z,11.13
2023-01-13T01:28:16.829Z,11.13
2023-01-13T01:28:37.876Z,11.13
2023-01-13T01:28:58.930Z,11.13
2023-01-13T01:29:19.981Z,11.14
2023-01-13T01:29:41.047Z,11.13
2023-01-13T01:30:02.109Z,11.13
2023-01-13T01:30:23.136Z,11.13
2023-01-13T01:30:44.191Z,11.13
2023-01-13T01:31:05.296Z,11.14
2023-01-13T01:31:26.497Z,11.14
2023-01-13T01:31:47.640Z,11.15
2023-01-13T01:32:08.676Z,11.14
2023-01-13T01:32:29.714Z,11.15
2023-01-13T01:32:50.755Z,11.15
2023-01-13T01:33:11.820Z,11.15
2023-01-13T01:33:32.851Z,11.15
2023-01-13T01:33:53.920Z,11.16
2023-01-13T01:34:14.965Z,11.16
2023-01-13T01:34:36.001Z,11.16
2023-01-13T01:34:57.047Z,11.15
2023-01-13T01:35:18.093Z,11.16
2023-01-13T01:35:39.146Z,11.16
2023-01-13T01:36:00.198Z,11.17
2023-01-13T01:36:21.249Z,11.16
2023-01-13T01:36:42.319Z,11.17
2023-01-13T01:37:03.388Z,11.17
2023-01-13T01:37:24.449Z,11.17
2023-01-13T01:37:45.503Z,11.17
2023-01-13T01:38:06.552Z,11.17
2023-01-13T01:38:27.606Z,11.17
2023-01-13T01:38:48.654Z,11.18
2023-01-13T01:39:09.707Z,11.18
2023-01-13T01:39:30.766Z,11.18
2023-01-13T01:39:51.811Z,11.18
2023-01-13T01:40:12.890Z,11.18
2023-01-13T01:40:34.007Z,11.19
2023-01-13T01:40:55.055Z,11.18
2023-01-13T01:41:16.115Z,11.18
2023-01-13T01:41:37.149Z,11.19
2023-01-13T01:41:58.371Z,11.19
2023-01-13T01:42:19.413Z,11.19
2023-01-13T01:42:40.484Z,11.19
2023-01-13T01:43:01.564Z,11.19
2023-01-13T01:43:22.578Z,11.19
2023-01-13T01:43:43.643Z,11.19
2023-01-13T01:44:04.698Z,11.20
2023-01-13T01:44:25.739Z,11.20
2023-01-13T01:44:46.791Z,11.19
2023-01-13T01:45:07.859Z,11.20
2023-01-13T01:45:28.931Z,11.20
2023-01-13T01:45:50.004Z,11.20
2023-01-13T01:46:11.036Z,11.21
2023-01-13T01:46:32.147Z,11.20
2023-01-13T01:46:53.260Z,11.20
2023-01-13T01:47:14.358Z,11.20
2023-01-13T01:47:35.396Z,11.20
2023-01-13T01:47:57.410Z,11.20
2023-01-13T01:48:18.456Z,11.20
2023-01-13T01:48:39.525Z,11.21
2023-01-13T01:49:00.571Z,11.21
2023-01-13T01:49:21.623Z,11.21
2023-01-13T01:49:42.671Z,11.20
2023-01-13T01:50:03.723Z,11.21
2023-01-13T01:50:24.987Z,11.21
2023-01-13T01:50:46.049Z,11.20
2023-01-13T01:51:07.115Z,11.21
2023-01-13T01:51:28.153Z,11.21
2023-01-13T01:51:49.217Z,11.22
2023-01-13T01:52:10.246Z,11.21
2023-01-13T01:52:31.321Z,11.22
2023-01-13T01:52:52.383Z,11.22
2023-01-13T01:53:13.417Z,11.21
2023-01-13T01:53:34.484Z,11.22
2023-01-13T01:53:55.525Z,11.22
2023-01-13T01:54:16.579Z,11.22
2023-01-13T01:54:37.637Z,11.22
2023-01-13T01:54:58.683Z,11.22
2023-01-13T01:55:19.734Z,11.21
2023-01-13T01:55:40.775Z,11.21
2023-01-13T01:56:01.823Z,11.22
2023-01-13T01:56:22.869Z,11.22
2023-01-13T01:56:43.935Z,11.22
2023-01-13T01:57:04.986Z,11.22
2023-01-13T01:57:26.041Z,11.22
2023-01-13T01:57:47.244Z,11.21
2023-01-13T01:58:08.317Z,11.21
2023-01-13T01:58:29.347Z,11.23
2023-01-13T01:58:50.404Z,11.22
2023-01-13T01:59:11.455Z,11.22
2023-01-13T01:59:32.512Z,11.23
2023-01-13T01:59:53.559Z,11.23
2023-01-13T02:00:14.632Z,11.22
2023-01-13T02:00:35.674Z,11.24
2023-01-13T02:00:56.820Z,11.23
2023-01-13T02:01:17.984Z,11.24
2023-01-13T02:01:39.296Z,11.23
2023-01-13T02:02:00.624Z,11.24
2023-01-13T02:02:21.799Z,11.24
2023-01-13T02:02:42.891Z,11.23
2023-01-13T02:03:04.060Z,11.23
2023-01-13T02:03:25.114Z,11.23
2023-01-13T02:03:46.162Z,11.23
2023-01-13T02:04:07.205Z,11.23
2023-01-13T02:04:28.270Z,11.24
2023-01-13T02:04:49.312Z,11.24
2023-01-13T02:05:10.384Z,11.24
2023-01-13T02:05:31.429Z,11.25
2023-01-13T02:05:52.483Z,11.24
2023-01-13T02:06:13.528Z,11.25
2023-01-13T02:06:34.586Z,11.25
2023-01-13T02:06:55.617Z,11.25
2023-01-13T02:07:16.673Z,11.25
2023-01-13T02:07:37.709Z,11.25
2023-01-13T02:07:58.768Z,11.26
2023-01-13T02:08:19.847Z,11.26
2023-01-13T02:08:40.895Z,11.26
2023-01-13T02:09:01.949Z,11.26
2023-01-13T02:09:22.988Z,11.26
2023-01-13T02:09:44.034Z,11.25
2023-01-13T02:10:05.106Z,11.27
2023-01-13T02:10:26.198Z,11.26
2023-01-13T02:10:47.214Z,11.26
2023-01-13T02:11:08.265Z,11.26
2023-01-13T02:11:29.321Z,11.27
2023-01-13T02:11:50.355Z,11.27
2023-01-13T02:12:11.416Z,11.27
2023-01-13T02:12:32.630Z,11.26
2023-01-13T02:12:53.713Z,11.26
2023-01-13T02:13:14.749Z,11.27
2023-01-13T02:13:35.914Z,11.27
2023-01-13T02:13:56.961Z,11.27
2023-01-13T02:14:18.013Z,11.26
2023-01-13T02:14:39.057Z,11.27
2023-01-13T02:15:00.142Z,11.27
2023-01-13T02:15:21.197Z,11.27
2023-01-13T02:15:42.229Z,11.26
2023-01-13T02:16:03.345Z,11.27
2023-01-13T02:16:24.456Z,11.27
2023-01-13T02:16:45.476Z,11.27
2023-01-13T02:17:06.531Z,11.27
2023-01-13T02:17:27.575Z,11.26
2023-01-13T02:17:48.625Z,11.26
2023-01-13T02:18:09.710Z,11.27
2023-01-13T02:18:30.751Z,11.27
2023-01-13T02:18:51.957Z,11.27
2023-01-13T02:19:13.007Z,11.27
2023-01-13T02:19:34.056Z,11.27
2023-01-13T02:19:55.114Z,11.27
2023-01-13T02:20:16.148Z,11.28
2023-01-13T02:20:37.216Z,11.27
2023-01-13T02:20:58.272Z,11.28
2023-01-13T02:21:19.311Z,11.27
2023-01-13T02:21:40.361Z,11.27
2023-01-13T02:22:01.444Z,11.27
2023-01-13T02:22:22.476Z,11.27
2023-01-13T02:22:43.522Z,11.27
2023-01-13T02:23:04.570Z,11.27
2023-01-13T02:23:25.619Z,11.27
2023-01-13T02:23:46.679Z,11.27
2023-01-13T02:24:07.741Z,11.27
2023-01-13T02:24:28.782Z,11.27
2023-01-13T02:24:49.827Z,11.28
2023-01-13T02:25:10.939Z,11.27
2023-01-13T02:25:32.185Z,11.27
2023-01-13T02:25:53.259Z,11.27
2023-01-13T02:26:14.281Z,11.28
2023-01-13T02:26:35.562Z,11.28
2023-01-13T02:26:56.714Z,11.28
2023-01-13T02:27:17.859Z,11.28
2023-01-13T02:27:38.908Z,11.29
2023-01-13T02:28:00.061Z,11.29
2023-01-13T02:28:21.165Z,11.29
2023-01-13T02:28:42.200Z,11.28
2023-01-13T02:29:03.250Z,11.29
2023-01-13T02:29:24.328Z,11.29
2023-01-13T02:29:45.365Z,11.29
2023-01-13T02:30:06.436Z,11.30
2023-01-13T02:30:27.489Z,11.29
2023-01-13T02:30:48.529Z,11.29
2023-01-13T02:31:09.600Z,11.29
2023-01-13T02:31:30.689Z,11.29
2023-01-13T02:31:51.783Z,11.29
2023-01-13T02:32:12.805Z,11.31
2023-01-13T02:32:33.846Z,11.30
2023-01-13T02:32:54.908Z,11.30
2023-01-13T02:33:15.988Z,11.30
2023-01-13T02:33:37.007Z,11.30
2023-01-13T02:33:58.053Z,11.30
2023-01-13T02:34:19.120Z,11.30
2023-01-13T02:34:40.315Z,11.30
2023-01-13T02:35:01.370Z,11.30
2023-01-13T02:35:22.427Z,11.30
2023-01-13T02:35:43.473Z,11.31
2023-01-13T02:36:04.547Z,11.29
2023-01-13T02:36:25.603Z,11.30
2023-01-13T02:36:46.657Z,11.30
2023-01-13T02:37:07.742Z,11.30
2023-01-13T02:37:28.814Z,11.30
2023-01-13T02:37:50.013Z,11.30
2023-01-13T02:38:11.049Z,11.30
2023-01-13T02:38:32.154Z,11.30
2023-01-13T02:38:53.216Z,11.30
2023-01-13T02:39:14.260Z,11.30
2023-01-13T02:39:35.318Z,11.31
2023-01-13T02:39:56.506Z,11.31
2023-01-13T02:40:17.584Z,11.31
2023-01-13T02:40:38.622Z,11.31
2023-01-13T02:40:59.675Z,11.31
2023-01-13T02:41:20.703Z,11.30
2023-01-13T02:41:41.754Z,11.30
2023-01-13T02:42:02.810Z,11.30
2023-01-13T02:42:23.864Z,11.30
2023-01-13T02:42:44.904Z,11.30
2023-01-13T02:43:05.989Z,11.31
2023-01-13T02:43:27.017Z,11.30
2023-01-13T02:43:48.061Z,11.30
2023-01-13T02:44:09.131Z,11.30
2023-01-13T02:44:30.160Z,11.30
2023-01-13T02:44:51.212Z,11.30
2023-01-13T02:45:12.413Z,11.30
2023-01-13T02:45:33.539Z,11.30
2023-01-13T02:45:54.702Z,11.30
2023-01-13T02:46:15.792Z,11.29
2023-01-13T02:46:36.821Z,11.29
2023-01-13T02:46:57.883Z,11.30
2023-01-13T02:47:18.918Z,11.29
2023-01-13T02:47:39.968Z,11.30
2023-01-13T02:48:01.019Z,11.29
2023-01-13T02:48:22.069Z,11.30
2023-01-13T02:48:43.125Z,11.29
2023-01-13T02:49:04.195Z,11.29
2023-01-13T02:49:25.235Z,11.30
2023-01-13T02:49:46.285Z,11.29
2023-01-13T02:50:07.350Z,11.29
2023-01-13T02:50:28.548Z,11.30
2023-01-13T02:50:49.600Z,11.30
2023-01-13T02:51:10.652Z,11.30
2023-01-13T02:51:31.701Z,11.30
2023-01-13T02:51:52.760Z,11.30
2023-01-13T02:52:13.799Z,11.31
2023-01-13T02:52:34.857Z,11.30
2023-01-13T02:52:55.896Z,11.30
2023-01-13T02:53:16.939Z,11.30
2023-01-13T02:53:37.996Z,11.30
2023-01-13T02:53:59.034Z,11.30
2023-01-13T02:54:20.085Z,11.30
2023-01-13T02:54:41.134Z,11.30
2023-01-13T02:55:02.235Z,11.30
2023-01-13T02:55:23.256Z,11.30
2023-01-13T02:55:44.325Z,11.30
2023-01-13T02:56:05.372Z,11.30
2023-01-13T02:56:26.415Z,11.30
2023-01-13T02:56:47.456Z,11.30
2023-01-13T02:57:08.524Z,11.30
2023-01-13T02:57:29.572Z,11.31
2023-01-13T02:57:50.617Z,11.30
2023-01-13T02:58:11.677Z,11.30
2023-01-13T02:58:32.738Z,11.30
2023-01-13T02:58:53.788Z,11.29
2023-01-13T02:59:14.845Z,11.30
2023-01-13T02:59:35.904Z,11.30
2023-01-13T02:59:56.974Z,11.30
2023-01-13T03:00:18.020Z,11.31
2023-01-13T03:00:39.093Z,11.30
2023-01-13T03:01:00.380Z,11.30
2023-01-13T03:01:21.600Z,11.30
2023-01-13T03:01:42.777Z,11.30
2023-01-13T03:02:04.134Z,11.30
2023-01-13T03:02:25.357Z,11.29
2023-01-13T03:02:46.519Z,11.29
2023-01-13T03:03:07.561Z,11.30
2023-01-13T03:03:28.623Z,11.30
2023-01-13T03:03:49.685Z,11.30
2023-01-13T03:04:10.733Z,11.29
2023-01-13T03:04:31.811Z,11.30
2023-01-13T03:04:52.877Z,11.30
2023-01-13T03:05:13.928Z,11.29
2023-01-13T03:05:34.983Z,11.30
2023-01-13T03:05:56.062Z,11.29
2023-01-13T03:06:17.275Z,11.29
2023-01-13T03:06:38.311Z,11.29
2023-01-13T03:06:59.365Z,11.29
2023-01-13T03:07:20.423Z,11.29
2023-01-13T03:07:41.487Z,11.29
2023-01-13T03:08:02.548Z,11.28
2023-01-13T03:08:23.595Z,11.29
2023-01-13T03:08:44.653Z,11.29
2023-01-13T03:09:05.744Z,11.30
2023-01-13T03:09:26.835Z,11.29
2023-01-13T03:09:47.887Z,11.29
2023-01-13T03:10:08.933Z,11.29
2023-01-13T03:10:30.029Z,11.29
2023-01-13T03:10:51.079Z,11.29
2023-01-13T03:11:12.145Z,11.29
2023-01-13T03:11:33.223Z,11.28
2023-01-13T03:11:54.301Z,11.28
2023-01-13T03:12:15.382Z,11.28
2023-01-13T03:12:36.413Z,11.29
2023-01-13T03:12:57.475Z,11.29
2023-01-13T03:13:18.554Z,11.29
2023-01-13T03:13:39.646Z,11.29
2023-01-13T03:14:00.668Z,11.29
2023-01-13T03:14:21.737Z,11.29
2023-01-13T03:14:42.792Z,11.29
2023-01-13T03:15:03.873Z,11.29
2023-01-13T03:15:24.922Z,11.28
2023-01-13T03:15:46.000Z,11.29
2023-01-13T03:16:07.041Z,11.29
2023-01-13T03:16:28.152Z,11.29
2023-01-13T03:16:49.352Z,11.29
2023-01-13T03:17:10.399Z,11.28
2023-01-13T03:17:31.451Z,11.29
2023-01-13T03:17:52.552Z,11.28
2023-01-13T03:18:13.624Z,11.28
2023-01-13T03:18:34.663Z,11.29
2023-01-13T03:18:55.777Z,11.29
2023-01-13T03:19:16.822Z,11.28
2023-01-13T03:19:37.906Z,11.28
2023-01-13T03:19:58.960Z,11.28
2023-01-13T03:20:20.029Z,11.28
2023-01-13T03:20:41.086Z,11.28
2023-01-13T03:21:02.171Z,11.28
2023-01-13T03:21:23.219Z,11.28
2023-01-13T03:21:44.272Z,11.28
2023-01-13T03:22:05.488Z,11.28
2023-01-13T03:22:26.542Z,11.28
2023-01-13T03:22:47.588Z,11.27
2023-01-13T03:23:08.647Z,11.27
2023-01-13T03:23:29.711Z,11.27
2023-01-13T03:23:50.791Z,11.27
2023-01-13T03:24:11.868Z,11.27
2023-01-13T03:24:32.900Z,11.26
2023-01-13T03:24:53.948Z,11.26
2023-01-13T03:25:15.025Z,11.27
2023-01-13T03:25:36.068Z,11.27
2023-01-13T03:25:57.121Z,11.27
2023-01-13T03:26:18.183Z,11.27
2023-01-13T03:26:39.246Z,11.27
2023-01-13T03:27:00.300Z,11.27
2023-01-13T03:27:21.402Z,11.27
2023-01-13T03:27:42.466Z,11.27
2023-01-13T03:28:03.532Z,11.27
2023-01-13T03:28:24.586Z,11.27
2023-01-13T03:28:45.640Z,11.26
2023-01-13T03:29:06.705Z,11.26
2023-01-13T03:29:27.765Z,11.26
2023-01-13T03:29:48.845Z,11.26
2023-01-13T03:30:09.929Z,11.27
2023-01-13T03:30:31.041Z,11.27
2023-01-13T03:30:52.151Z,11.27
2023-01-13T03:31:13.220Z,11.27
2023-01-13T03:31:34.275Z,11.28
2023-01-13T03:31:55.345Z,11.26
2023-01-13T03:32:16.402Z,11.26
2023-01-13T03:32:37.759Z,11.26
2023-01-13T03:32:58.815Z,11.26
2023-01-13T03:33:19.870Z,11.27
2023-01-13T03:33:40.943Z,11.26
2023-01-13T03:34:01.982Z,11.27
2023-01-13T03:34:23.068Z,11.27
2023-01-13T03:34:44.124Z,11.27
2023-01-13T03:35:05.168Z,11.26
2023-01-13T03:35:26.233Z,11.27
2023-01-13T03:35:47.298Z,11.27
2023-01-13T03:36:08.357Z,11.27
2023-01-13T03:36:29.404Z,11.27
2023-01-13T03:36:50.481Z,11.27
2023-01-13T03:37:11.546Z,11.27
2023-01-13T03:37:32.606Z,11.28
2023-01-13T03:37:53.666Z,11.27
2023-01-13T03:38:14.744Z,11.27
2023-01-13T03:38:35.826Z,11.28
2023-01-13T03:38:56.890Z,11.28
2023-01-13T03:39:17.958Z,11.28
2023-01-13T03:39:39.041Z,11.28
2023-01-13T03:40:00.084Z,11.28
2023-01-13T03:40:21.143Z,11.28
2023-01-13T03:40:42.208Z,11.28
2023-01-13T03:41:03.270Z,11.29
2023-01-13T03:41:24.339Z,11.27
2023-01-13T03:41:45.385Z,11.28
2023-01-13T03:42:06.441Z,11.28
2023-01-13T03:42:27.513Z,11.28
2023-01-13T03:42:48.596Z,11.29
2023-01-13T03:43:09.646Z,11.28
2023-01-13T03:43:30.726Z,11.28
2023-01-13T03:43:51.775Z,11.28
2023-01-13T03:44:12.826Z,11.28
2023-01-13T03:44:33.908Z,11.27
2023-01-13T03:44:54.949Z,11.29
2023-01-13T03:45:16.000Z,11.27
2023-01-13T03:45:37.144Z,11.28
2023-01-13T03:45:58.290Z,11.28
2023-01-13T03:46:19.357Z,11.29
2023-01-13T03:46:40.396Z,11.28
2023-01-13T03:47:01.470Z,11.29
2023-01-13T03:47:22.512Z,11.28
2023-01-13T03:47:43.597Z,11.27
2023-01-13T03:48:04.636Z,11.28
2023-01-13T03:48:25.706Z,11.28
2023-01-13T03:48:46.813Z,11.28
2023-01-13T03:49:07.840Z,11.28
2023-01-13T03:49:28.897Z,11.28
2023-01-13T03:49:49.970Z,11.28
2023-01-13T03:50:11.014Z,11.28
2023-01-13T03:50:32.073Z,11.28
2023-01-13T03:50:53.133Z,11.28
2023-01-13T03:51:14.190Z,11.28
2023-01-13T03:51:35.249Z,11.28
2023-01-13T03:51:56.317Z,11.28
2023-01-13T03:52:17.384Z,11.28
2023-01-13T03:52:38.424Z,11.28
2023-01-13T03:52:59.484Z,11.29
2023-01-13T03:53:20.558Z,11.28
2023-01-13T03:53:41.805Z,11.28
2023-01-13T03:54:02.858Z,11.28
2023-01-13T03:54:23.940Z,11.29
2023-01-13T03:54:44.994Z,11.28
2023-01-13T03:55:06.064Z,11.28
2023-01-13T03:55:27.151Z,11.28
2023-01-13T03:55:48.204Z,11.29
2023-01-13T03:56:09.304Z,11.28
2023-01-13T03:56:30.362Z,11.29
2023-01-13T03:56:51.421Z,11.28
2023-01-13T03:57:12.478Z,11.28
2023-01-13T03:57:33.536Z,11.29
2023-01-13T03:57:54.623Z,11.29
2023-01-13T03:58:15.774Z,11.28
2023-01-13T03:58:36.886Z,11.28
2023-01-13T03:58:58.048Z,11.29
2023-01-13T03:59:19.109Z,11.28
2023-01-13T03:59:40.182Z,11.28
2023-01-13T04:00:01.233Z,11.29
2023-01-13T04:00:22.307Z,11.28
2023-01-13T04:00:43.371Z,11.29
2023-01-13T04:01:04.586Z,11.29
2023-01-13T04:01:25.814Z,11.29
2023-01-13T04:01:47.000Z,11.29
2023-01-13T04:02:08.301Z,11.29
2023-01-13T04:02:29.388Z,11.28
2023-01-13T04:02:50.433Z,11.29
2023-01-13T04:03:11.509Z,11.29
2023-01-13T04:03:32.584Z,11.28
2023-01-13T04:03:53.688Z,11.28
2023-01-13T04:04:14.745Z,11.28
2023-01-13T04:04:35.799Z,11.28
2023-01-13T04:04:56.866Z,11.27
2023-01-13T04:05:17.923Z,11.28
2023-01-13T04:05:38.980Z,11.28
2023-01-13T04:06:00.058Z,11.27
2023-01-13T04:06:21.104Z,11.28
2023-01-13T04:06:42.179Z,11.27
2023-01-13T04:07:03.223Z,11.28
2023-01-13T04:07:24.320Z,11.28
2023-01-13T04:07:45.378Z,11.28
2023-01-13T04:08:06.441Z,11.28
2023-01-13T04:08:27.497Z,11.29
2023-01-13T04:08:48.569Z,11.29
2023-01-13T04:09:09.630Z,11.29
2023-01-13T04:09:30.719Z,11.29
2023-01-13T04:09:51.777Z,11.30
2023-01-13T04:10:12.878Z,11.30
2023-01-13T04:10:33.898Z,11.30
2023-01-13T04:10:54.971Z,11.30
2023-01-13T04:11:16.017Z,11.30
2023-01-13T04:11:37.073Z,11.31
2023-01-13T04:11:58.136Z,11.31
2023-01-13T04:12:19.206Z,11.31
2023-01-13T04:12:40.272Z,11.31
2023-01-13T04:13:01.343Z,11.31
2023-01-13T04:13:22.402Z,11.31
2023-01-13T04:13:43.465Z,11.31
2023-01-13T04:14:04.527Z,11.31
2023-01-13T04:14:25.586Z,11.30
2023-01-13T04:14:46.682Z,11.32
2023-01-13T04:15:07.743Z,11.31
2023-01-13T04:15:28.838Z,11.31
2023-01-13T04:15:49.905Z,11.31
2023-01-13T04:16:11.036Z,11.31
2023-01-13T04:16:32.096Z,11.31
2023-01-13T04:16:53.160Z,11.31
2023-01-13T04:17:14.213Z,11.31
2023-01-13T04:17:35.262Z,11.32
2023-01-13T04:17:56.325Z,11.31
2023-01-13T04:18:17.387Z,11.31
2023-01-13T04:18:38.448Z,11.31
2023-01-13T04:18:59.503Z,11.31
2023-01-13T04:19:20.580Z,11.32
2023-01-13T04:19:41.644Z,11.31
2023-01-13T04:20:02.705Z,11.32
2023-01-13T04:20:23.767Z,11.32
2023-01-13T04:20:44.812Z,11.33
2023-01-13T04:21:05.905Z,11.32
2023-01-13T04:21:26.959Z,11.33
2023-01-13T04:21:48.017Z,11.33
2023-01-13T04:22:09.059Z,11.34
2023-01-13T04:22:30.140Z,11.33
2023-01-13T04:22:51.181Z,11.33
2023-01-13T04:23:12.249Z,11.32
2023-01-13T04:23:33.326Z,11.32
2023-01-13T04:23:54.389Z,11.32
2023-01-13T04:24:15.436Z,11.32
2023-01-13T04:24:36.488Z,11.32
2023-01-13T04:24:57.547Z,11.32
2023-01-13T04:25:18.777Z,11.33
2023-01-13T04:25:39.823Z,11.33
2023-01-13T04:26:00.923Z,11.34
2023-01-13T04:26:21.983Z,11.33
2023-01-13T04:26:43.057Z,11.34
2023-01-13T04:27:04.136Z,11.35
2023-01-13T04:27:25.226Z,11.34
2023-01-13T04:27:46.284Z,11.34
2023-01-13T04:28:07.348Z,11.34
2023-01-13T04:28:28.418Z,11.35
2023-01-13T04:28:49.467Z,11.35
2023-01-13T04:29:10.538Z,11.35
2023-01-13T04:29:31.581Z,11.35
2023-01-13T04:29:52.645Z,11.34
2023-01-13T04:30:13.715Z,11.35
2023-01-13T04:30:34.798Z,11.35
2023-01-13T04:30:55.947Z,11.36
2023-01-13T04:31:17.027Z,11.35